Startpagina
METAR-TAF:

METAR-TAF

Vliegvelden :

Nörvenich, Duitsland

breedte: 50-50N, lengte: 006-40E, hoogte: 118 m

Actueel weer

Dit bericht is 30 minuten geleden gemaakt, om 23:20 UTC
Wind 6 kt uit het westzuidwesten
Temperatuur 20°C
Vochtigheid 83%
Druk 1016 hPa
Zicht 10 km of meer
Weinig wolken op 2000 ft
Gebroken wolken op 5000 ft
lichte regenbuien

METAR: ETNN 192320Z 25006KT 9999 -SHRA FEW020 BKN050 20/17 Q1016 BLU

Tijdstip: 01:50 (23:50 UTC)

Verwachting

Dit bericht is 16 uur en het 12 minuten geleden gemaakt, om 07:38 UTC
Verwachting geldig van 19 om 08 UTC tot 19 om 17 UTC
Wind 8 kt uit het westen
Zicht 10 km of meer
Verspreide wolken op 5000 ft
Gebroken wolken op 30000 ft
Tijdelijke
van 19 om 08 UTC tot 19 om 09 UTC
Wind 5 kt uit het westzuidwesten
Zicht: 4000 m
Weinig wolken op 1200 ft
Gebroken wolken op 28000 ft
nevel

TAF: ETNN 190738Z 1908/1917 27008KT 9999 NSW SCT050 BKN300 TEMPO 1908/1909 25005KT 4000 BR FEW012 BKN280 BY ETGL

Waarnemingen en weersverwachtingen van meer dan 4000 vliegvelden (METAR en TAF).

De beschikbare stations zijn de gele en rode punten op de kaart.

Ga met uw muis naar het station om de naam te zien.

Klik dan om waarnemingen en weersverwachtingen te zien.

kaart wijzigen: klik op de groene knoppen met een zwart kruis om in te zoomen, op de groene knop met een streepje om uit te zoomen of op de groene pijlen voor aangrenzende kaarten.


METAR-TAF: